createdAt,value
2018-07-19T00:00:18.334Z,54.93
2018-07-19T00:02:47.398Z,53.95
2018-07-19T00:05:16.505Z,54.44
2018-07-19T00:07:45.650Z,54.25
2018-07-19T00:10:14.763Z,54.06
2018-07-19T00:12:43.858Z,54.04
2018-07-19T00:15:12.910Z,54.93
2018-07-19T00:17:42.062Z,54.66
2018-07-19T00:20:11.202Z,54.49
2018-07-19T00:22:40.253Z,55.00
2018-07-19T00:25:09.389Z,54.20
2018-07-19T00:27:38.489Z,54.30
2018-07-19T00:30:07.513Z,55.08
2018-07-19T00:32:36.620Z,55.03
2018-07-19T00:35:05.902Z,55.58
2018-07-19T00:37:34.941Z,55.04
2018-07-19T00:40:04.047Z,56.31
2018-07-19T00:42:33.103Z,55.55
2018-07-19T00:45:02.151Z,56.21
2018-07-19T00:47:31.213Z,56.63
2018-07-19T00:50:00.252Z,56.56
2018-07-19T00:52:29.279Z,56.81
2018-07-19T00:54:58.374Z,56.20
2018-07-19T00:57:27.786Z,56.77
2018-07-19T00:59:56.841Z,57.22
2018-07-19T01:02:25.877Z,56.88
2018-07-19T01:04:54.947Z,56.85
2018-07-19T01:07:24.014Z,56.39
2018-07-19T01:09:53.064Z,56.51
2018-07-19T01:12:22.088Z,57.11
2018-07-19T01:14:51.209Z,56.46
2018-07-19T01:17:20.258Z,56.56
2018-07-19T01:19:49.293Z,56.81
2018-07-19T01:22:18.304Z,56.51
2018-07-19T01:24:47.385Z,57.61
2018-07-19T01:27:16.429Z,57.06
2018-07-19T01:29:45.538Z,57.99
2018-07-19T01:32:14.629Z,57.84
2018-07-19T01:34:43.757Z,57.32
2018-07-19T01:37:12.801Z,57.50
2018-07-19T01:39:41.841Z,57.01
2018-07-19T01:42:23.435Z,58.19
2018-07-19T01:44:52.508Z,57.88
2018-07-19T01:47:21.574Z,57.59
2018-07-19T01:49:50.644Z,58.47
2018-07-19T01:52:19.685Z,58.54
2018-07-19T01:54:48.805Z,58.44
2018-07-19T01:57:18.623Z,57.53
2018-07-19T01:59:48.361Z,58.08
2018-07-19T02:02:18.220Z,58.40
2018-07-19T02:04:47.544Z,58.17
2018-07-19T02:07:16.673Z,58.14
2018-07-19T02:09:46.314Z,57.75
2018-07-19T02:12:15.409Z,58.25
2018-07-19T02:14:44.433Z,57.71
2018-07-19T02:17:14.024Z,57.94
2018-07-19T02:19:43.106Z,58.49
2018-07-19T02:22:12.191Z,58.39
2018-07-19T02:24:41.213Z,58.29
2018-07-19T02:27:10.358Z,58.35
2018-07-19T02:29:39.440Z,58.96
2018-07-19T02:32:08.491Z,59.11
2018-07-19T02:34:37.534Z,59.21
2018-07-19T02:37:08.652Z,59.25
2018-07-19T02:39:38.890Z,60.09
2018-07-19T02:42:07.941Z,60.40
2018-07-19T02:44:37.023Z,60.48
2018-07-19T02:47:06.260Z,59.83
2018-07-19T02:49:35.337Z,59.90
2018-07-19T02:52:04.382Z,59.48
2018-07-19T02:54:33.474Z,60.50
2018-07-19T02:57:02.489Z,60.50
2018-07-19T02:59:31.539Z,60.03
2018-07-19T03:02:00.608Z,60.35
2018-07-19T03:04:29.674Z,61.27
2018-07-19T03:06:58.733Z,60.69
2018-07-19T03:09:28.260Z,61.62
2018-07-19T03:11:57.326Z,61.69
2018-07-19T03:14:26.430Z,61.54
2018-07-19T03:16:55.663Z,61.42
2018-07-19T03:19:24.828Z,61.44
2018-07-19T03:21:53.862Z,61.75
2018-07-19T03:24:22.910Z,61.24
2018-07-19T03:26:52.326Z,60.99
2018-07-19T03:29:21.461Z,61.79
2018-07-19T03:31:50.554Z,60.82
2018-07-19T03:34:19.629Z,60.73
2018-07-19T03:36:48.855Z,61.66
2018-07-19T03:39:17.945Z,60.28
2018-07-19T03:41:46.984Z,60.61
2018-07-19T03:44:16.037Z,61.63
2018-07-19T03:46:45.377Z,60.68
2018-07-19T03:49:14.480Z,62.09
2018-07-19T03:51:43.525Z,60.71
2018-07-19T03:54:12.613Z,61.07
2018-07-19T03:56:41.667Z,61.43
2018-07-19T03:59:10.688Z,60.78
2018-07-19T04:01:39.811Z,60.53
2018-07-19T04:04:08.881Z,60.96
2018-07-19T04:06:37.965Z,61.97
2018-07-19T04:09:07.352Z,62.01
2018-07-19T04:11:37.114Z,62.22
2018-07-19T04:14:06.433Z,62.49
2018-07-19T04:16:35.505Z,62.02
2018-07-19T04:19:04.599Z,62.36
2018-07-19T04:21:33.702Z,61.71
2018-07-19T04:24:02.754Z,61.38
2018-07-19T04:26:31.860Z,62.17
2018-07-19T04:29:00.918Z,62.43
2018-07-19T04:31:30.013Z,62.17
2018-07-19T04:33:59.122Z,62.03
2018-07-19T04:36:28.202Z,61.00
2018-07-19T04:38:57.272Z,61.78
2018-07-19T04:41:26.350Z,62.13
2018-07-19T04:43:55.407Z,62.36
2018-07-19T04:46:24.490Z,62.30
2018-07-19T04:48:53.578Z,61.79
2018-07-19T04:51:22.630Z,60.88
2018-07-19T04:53:51.677Z,61.21
2018-07-19T04:56:20.712Z,61.68
2018-07-19T04:58:49.793Z,61.30
2018-07-19T05:01:18.871Z,61.18
2018-07-19T05:03:47.916Z,61.55
2018-07-19T05:06:16.973Z,61.08
2018-07-19T05:08:46.034Z,60.12
2018-07-19T05:11:15.110Z,60.64
2018-07-19T05:13:44.245Z,60.53
2018-07-19T05:16:13.331Z,60.72
2018-07-19T05:18:42.397Z,60.39
2018-07-19T05:21:11.429Z,60.60
2018-07-19T05:23:40.530Z,60.16
2018-07-19T05:26:09.592Z,59.79
2018-07-19T05:28:38.664Z,60.04
2018-07-19T05:31:08.439Z,58.72
2018-07-19T05:33:37.615Z,58.49
2018-07-19T05:36:06.690Z,58.71
2018-07-19T05:38:36.308Z,58.97
2018-07-19T05:41:05.329Z,58.65
2018-07-19T05:43:34.502Z,59.34
2018-07-19T05:46:03.608Z,59.29
2018-07-19T05:48:32.683Z,58.36
2018-07-19T05:51:01.737Z,57.87
2018-07-19T05:53:30.857Z,57.79
2018-07-19T05:56:00.035Z,58.30
2018-07-19T05:58:29.326Z,57.35
2018-07-19T06:00:58.380Z,56.82
2018-07-19T06:03:27.456Z,56.88
2018-07-19T06:05:56.520Z,55.84
2018-07-19T06:08:25.560Z,56.52
2018-07-19T06:10:54.668Z,55.21
2018-07-19T06:13:23.784Z,55.66
2018-07-19T06:15:52.866Z,55.38
2018-07-19T06:18:21.915Z,54.94
2018-07-19T06:20:50.985Z,55.03
2018-07-19T06:23:20.086Z,53.68
2018-07-19T06:25:49.246Z,53.65
2018-07-19T06:28:18.275Z,53.50
2018-07-19T06:30:47.314Z,53.76
2018-07-19T06:33:16.601Z,53.23
2018-07-19T06:35:45.650Z,53.16
2018-07-19T06:38:14.764Z,53.81
2018-07-19T06:40:43.844Z,53.46
2018-07-19T06:43:13.066Z,53.28
2018-07-19T06:45:42.465Z,52.84
2018-07-19T06:48:11.684Z,52.93
2018-07-19T06:50:40.758Z,52.44
2018-07-19T06:53:10.230Z,51.57
2018-07-19T06:55:40.176Z,52.38
2018-07-19T06:58:09.240Z,51.78
2018-07-19T07:00:38.336Z,51.86
2018-07-19T07:03:07.437Z,51.66
2018-07-19T07:05:36.612Z,50.82
2018-07-19T07:08:05.868Z,51.12
2018-07-19T07:10:34.902Z,50.04
2018-07-19T07:13:04.077Z,50.23
2018-07-19T07:15:33.106Z,49.23
2018-07-19T07:18:02.195Z,49.67
2018-07-19T07:20:31.219Z,48.87
2018-07-19T07:23:00.370Z,49.65
2018-07-19T07:25:34.367Z,49.15
2018-07-19T07:28:03.410Z,48.16
2018-07-19T07:30:32.523Z,48.46
2018-07-19T07:33:01.626Z,47.60
2018-07-19T07:35:30.691Z,47.50
2018-07-19T07:37:59.738Z,47.28
2018-07-19T07:40:28.763Z,46.63
2018-07-19T07:45:26.877Z,46.29
2018-07-19T07:47:55.917Z,46.71
2018-07-19T07:50:25.263Z,45.20
2018-07-19T07:52:54.563Z,44.41
2018-07-19T07:55:23.732Z,42.93
2018-07-19T07:57:53.090Z,43.01
2018-07-19T08:00:22.336Z,43.49
2018-07-19T08:02:51.697Z,42.66
2018-07-19T08:05:20.861Z,43.46
2018-07-19T08:07:49.990Z,42.41
2018-07-19T08:10:19.109Z,42.56
2018-07-19T08:12:48.259Z,42.97
2018-07-19T08:15:18.073Z,42.37
2018-07-19T08:17:47.176Z,42.26
2018-07-19T08:20:16.393Z,40.88
2018-07-19T08:22:45.528Z,41.04
2018-07-19T08:25:14.627Z,41.63
2018-07-19T08:27:43.646Z,41.78
2018-07-19T08:30:12.765Z,41.08
2018-07-19T08:32:41.788Z,41.58
2018-07-19T08:35:10.874Z,40.76
2018-07-19T08:37:39.997Z,41.04
2018-07-19T08:40:09.138Z,41.31
2018-07-19T08:42:38.336Z,40.15
2018-07-19T08:45:07.471Z,39.21
2018-07-19T08:47:36.788Z,39.33
2018-07-19T08:50:06.038Z,39.09
2018-07-19T08:52:35.735Z,39.65
2018-07-19T08:55:04.809Z,38.95
2018-07-19T08:57:33.922Z,38.34
2018-07-19T09:00:03.035Z,38.34
2018-07-19T09:02:32.391Z,37.15
2018-07-19T09:05:01.448Z,37.60
2018-07-19T09:07:30.518Z,38.05
2018-07-19T09:09:59.741Z,38.39
2018-07-19T09:12:29.044Z,37.47
2018-07-19T09:14:58.382Z,37.02
2018-07-19T09:17:27.576Z,37.24
2018-07-19T09:19:56.833Z,36.51
2018-07-19T09:22:25.874Z,36.06
2018-07-19T09:24:54.932Z,36.14
2018-07-19T09:27:23.987Z,35.05
2018-07-19T09:29:53.112Z,36.48
2018-07-19T09:32:22.745Z,34.88
2018-07-19T09:34:51.818Z,35.33
2018-07-19T09:37:20.929Z,36.03
2018-07-19T09:39:49.959Z,35.91
2018-07-19T09:42:19.075Z,34.70
2018-07-19T09:44:48.153Z,33.71
2018-07-19T09:47:17.238Z,33.38
2018-07-19T09:49:46.269Z,34.73
2018-07-19T09:52:15.301Z,33.87
2018-07-19T09:54:52.300Z,34.47
2018-07-19T09:57:21.478Z,33.95
2018-07-19T09:59:51.147Z,33.05
2018-07-19T10:02:20.214Z,34.77
2018-07-19T10:04:49.274Z,33.19
2018-07-19T10:07:18.404Z,32.78
2018-07-19T10:09:47.568Z,32.89
2018-07-19T10:12:16.719Z,31.25
2018-07-19T10:14:46.083Z,31.44
2018-07-19T10:17:15.229Z,31.64
2018-07-19T10:19:44.372Z,31.37
2018-07-19T10:22:13.504Z,32.27
2018-07-19T10:24:42.710Z,31.39
2018-07-19T10:27:13.444Z,32.61
2018-07-19T10:29:42.549Z,32.81
2018-07-19T10:32:11.782Z,32.56
2018-07-19T10:34:41.388Z,32.72
2018-07-19T10:37:10.546Z,32.10
2018-07-19T10:39:39.966Z,32.75
2018-07-19T10:42:09.571Z,32.77
2018-07-19T10:44:38.890Z,31.17
2018-07-19T10:47:07.959Z,32.08
2018-07-19T10:49:37.109Z,32.63
2018-07-19T10:52:06.346Z,32.39
2018-07-19T10:54:35.397Z,32.12
2018-07-19T10:57:04.491Z,32.76
2018-07-19T10:59:33.582Z,32.94
2018-07-19T11:02:02.693Z,31.85
2018-07-19T11:04:31.882Z,31.85
2018-07-19T11:07:00.965Z,32.18
2018-07-19T11:09:30.049Z,30.58
2018-07-19T11:11:59.070Z,30.30
2018-07-19T11:14:28.133Z,30.09
2018-07-19T11:16:57.275Z,31.34
2018-07-19T11:19:26.453Z,30.06
2018-07-19T11:21:55.561Z,30.47
2018-07-19T11:24:24.746Z,30.73
2018-07-19T11:26:53.898Z,30.11
2018-07-19T11:29:23.031Z,30.73
2018-07-19T11:31:52.111Z,29.41
2018-07-19T11:34:21.232Z,29.20
2018-07-19T11:36:50.388Z,30.19
2018-07-19T11:39:19.461Z,28.64
2018-07-19T11:41:48.969Z,29.58
2018-07-19T11:44:18.041Z,29.17
2018-07-19T11:46:47.269Z,28.68
2018-07-19T11:49:16.468Z,29.77
2018-07-19T11:51:45.566Z,29.50
2018-07-19T11:54:14.870Z,29.80
2018-07-19T11:56:44.092Z,28.72
2018-07-19T11:59:13.508Z,28.46
2018-07-19T12:01:42.774Z,29.21
2018-07-19T12:04:12.045Z,28.04
2018-07-19T12:06:41.182Z,28.60
2018-07-19T12:09:11.442Z,27.13
2018-07-19T12:11:40.573Z,28.38
2018-07-19T12:14:09.706Z,29.18
2018-07-19T12:16:38.841Z,30.08
2018-07-19T12:19:08.066Z,29.03
2018-07-19T12:21:37.165Z,29.29
2018-07-19T12:24:06.425Z,28.50
2018-07-19T12:26:35.985Z,29.45
2018-07-19T12:29:05.135Z,28.39
2018-07-19T12:31:35.243Z,27.56
2018-07-19T12:34:04.436Z,28.48
2018-07-19T12:36:33.554Z,27.71
2018-07-19T12:39:02.682Z,27.93
2018-07-19T12:41:31.766Z,28.92
2018-07-19T12:44:00.814Z,28.67
2018-07-19T12:46:29.919Z,28.42
2018-07-19T12:48:59.195Z,28.67
2018-07-19T12:51:28.321Z,28.61
2018-07-19T12:53:57.373Z,29.50
2018-07-19T12:56:26.530Z,27.71
2018-07-19T12:58:55.622Z,27.60
2018-07-19T13:01:24.768Z,27.86
2018-07-19T13:03:53.908Z,26.93
2018-07-19T13:06:23.098Z,27.59
2018-07-19T13:08:52.312Z,27.92
2018-07-19T13:11:21.705Z,26.19
2018-07-19T13:13:51.121Z,25.78
2018-07-19T13:16:20.629Z,25.62
2018-07-19T13:18:50.173Z,26.46
2018-07-19T13:21:19.485Z,25.76
2018-07-19T13:23:48.780Z,24.84
2018-07-19T13:26:17.978Z,24.32
2018-07-19T13:28:47.027Z,25.18
2018-07-19T13:31:16.085Z,25.42
2018-07-19T13:33:45.150Z,24.59
2018-07-19T13:36:14.335Z,26.55
2018-07-19T13:38:44.514Z,26.41
2018-07-19T13:41:14.017Z,24.83
2018-07-19T13:43:43.580Z,25.95
2018-07-19T13:46:13.278Z,25.76
2018-07-19T13:48:42.445Z,27.69
2018-07-19T13:51:11.594Z,26.95
2018-07-19T13:53:55.308Z,27.65
2018-07-19T13:56:24.408Z,27.16
2018-07-19T13:58:53.491Z,27.57
2018-07-19T14:01:22.591Z,27.30
2018-07-19T14:03:52.697Z,27.79
2018-07-19T14:06:21.847Z,27.13
2018-07-19T14:08:50.983Z,26.78
2018-07-19T14:11:20.098Z,26.27
2018-07-19T14:13:49.350Z,24.92
2018-07-19T14:16:18.566Z,24.92
2018-07-19T14:18:47.799Z,23.61
2018-07-19T14:21:16.895Z,24.47
2018-07-19T14:23:46.045Z,24.23
2018-07-19T14:26:15.068Z,24.13
2018-07-19T14:28:44.256Z,22.95
2018-07-19T14:31:13.419Z,23.80
2018-07-19T14:33:42.511Z,23.76
2018-07-19T14:36:11.631Z,24.33
2018-07-19T14:38:40.813Z,24.22
2018-07-19T14:41:10.787Z,24.23
2018-07-19T14:43:39.950Z,24.85
2018-07-19T14:46:09.137Z,24.25
2018-07-19T14:48:38.171Z,23.53
2018-07-19T14:51:07.454Z,24.07
2018-07-19T14:53:36.525Z,24.04
2018-07-19T14:56:05.760Z,24.19
2018-07-19T14:58:34.866Z,24.67
2018-07-19T15:01:04.092Z,25.11
2018-07-19T15:03:33.364Z,24.12
2018-07-19T15:06:02.486Z,24.79
2018-07-19T15:08:32.311Z,23.46
2018-07-19T15:11:01.366Z,22.62
2018-07-19T15:13:30.450Z,22.87
2018-07-19T15:15:59.639Z,22.90
2018-07-19T15:18:28.758Z,23.65
2018-07-19T15:20:57.955Z,23.23
2018-07-19T15:23:27.093Z,23.44
2018-07-19T15:25:56.702Z,22.81
2018-07-19T15:28:25.989Z,22.47
2018-07-19T15:30:55.503Z,21.68
2018-07-19T15:33:24.568Z,21.06
2018-07-19T15:35:53.643Z,21.70
2018-07-19T15:38:22.710Z,21.75
2018-07-19T15:40:51.803Z,21.94
2018-07-19T15:43:20.838Z,21.12
2018-07-19T15:45:49.888Z,22.44
2018-07-19T15:48:18.938Z,22.48
2018-07-19T15:50:48.031Z,22.86
2018-07-19T15:53:17.142Z,22.14
2018-07-19T15:55:46.210Z,22.08
2018-07-19T15:58:15.340Z,22.88
2018-07-19T16:00:44.499Z,22.06
2018-07-19T16:03:13.599Z,22.53
2018-07-19T16:05:42.908Z,23.00
2018-07-19T16:08:12.066Z,21.80
2018-07-19T16:10:41.246Z,21.36
2018-07-19T16:13:10.693Z,21.80
2018-07-19T16:15:40.754Z,21.74
2018-07-19T16:18:09.986Z,21.73
2018-07-19T16:20:39.097Z,22.49
2018-07-19T16:23:08.429Z,22.12
2018-07-19T16:25:37.628Z,22.29
2018-07-19T16:28:06.734Z,23.20
2018-07-19T16:30:36.644Z,24.22
2018-07-19T16:33:05.927Z,21.84
2018-07-19T16:35:34.996Z,22.65
2018-07-19T16:38:04.146Z,23.57
2018-07-19T16:40:33.427Z,23.99
2018-07-19T16:43:02.566Z,23.12
2018-07-19T16:45:31.697Z,24.04
2018-07-19T16:48:01.042Z,26.55
2018-07-19T16:50:30.445Z,23.58
2018-07-19T16:52:59.550Z,25.36
2018-07-19T16:55:28.621Z,24.68
2018-07-19T16:57:57.702Z,24.31
2018-07-19T17:00:26.839Z,24.67
2018-07-19T17:02:55.901Z,23.83
2018-07-19T17:05:24.973Z,25.66
2018-07-19T17:07:53.998Z,25.44
2018-07-19T17:10:23.138Z,25.32
2018-07-19T17:12:52.150Z,25.01
2018-07-19T17:15:21.571Z,25.55
2018-07-19T17:17:50.839Z,25.92
2018-07-19T17:20:20.080Z,26.90
2018-07-19T17:22:49.318Z,27.40
2018-07-19T17:25:18.500Z,26.10
2018-07-19T17:27:47.576Z,26.11
2018-07-19T17:30:16.685Z,26.73
2018-07-19T17:32:46.419Z,26.79
2018-07-19T17:35:15.589Z,26.28
2018-07-19T17:37:44.648Z,26.47
2018-07-19T17:40:13.765Z,26.65
2018-07-19T17:42:42.965Z,26.82
2018-07-19T17:45:12.887Z,26.29
2018-07-19T17:47:42.001Z,26.91
2018-07-19T17:50:11.080Z,27.11
2018-07-19T17:52:40.281Z,27.55
2018-07-19T17:55:09.372Z,27.61
2018-07-19T17:57:38.447Z,27.89
2018-07-19T18:00:07.546Z,28.39
2018-07-19T18:02:36.670Z,27.96
2018-07-19T18:05:05.838Z,28.03
2018-07-19T18:07:35.003Z,27.57
2018-07-19T18:10:04.314Z,28.73
2018-07-19T18:12:33.414Z,27.26
2018-07-19T18:15:02.640Z,27.35
2018-07-19T18:17:31.730Z,28.07
2018-07-19T18:20:00.949Z,28.36
2018-07-19T18:22:30.050Z,27.71
2018-07-19T18:24:59.142Z,28.47
2018-07-19T18:27:28.250Z,29.42
2018-07-19T18:29:58.233Z,28.63
2018-07-19T18:32:27.416Z,28.46
2018-07-19T18:34:56.618Z,29.67
2018-07-19T18:37:25.750Z,30.64
2018-07-19T18:39:54.904Z,27.79
2018-07-19T18:42:24.945Z,29.05
2018-07-19T18:44:55.068Z,30.14
2018-07-19T18:47:24.209Z,30.01
2018-07-19T18:49:53.309Z,30.21
2018-07-19T18:52:23.070Z,30.57
2018-07-19T18:55:23.423Z,28.60
2018-07-19T18:58:04.512Z,30.74
2018-07-19T19:00:33.593Z,30.70
2018-07-19T19:03:02.714Z,31.34
2018-07-19T19:05:31.969Z,30.17
2018-07-19T19:08:01.818Z,30.33
2018-07-19T19:10:30.979Z,30.54
2018-07-19T19:13:00.065Z,31.46
2018-07-19T19:15:29.246Z,31.30
2018-07-19T19:17:58.506Z,31.86
2018-07-19T19:20:27.660Z,32.12
2018-07-19T19:22:56.822Z,32.27
2018-07-19T19:25:26.066Z,33.18
2018-07-19T19:27:55.225Z,32.94
2018-07-19T19:30:24.490Z,32.69
2018-07-19T19:32:53.642Z,33.32
2018-07-19T19:35:22.841Z,32.11
2018-07-19T19:37:52.014Z,31.62
2018-07-19T19:40:21.140Z,31.84
2018-07-19T19:42:50.198Z,32.27
2018-07-19T19:45:19.277Z,33.19
2018-07-19T19:47:48.389Z,35.14
2018-07-19T19:50:18.273Z,34.46
2018-07-19T19:52:47.353Z,34.12
2018-07-19T19:55:16.485Z,34.43
2018-07-19T19:57:45.650Z,34.38
2018-07-19T20:00:14.778Z,34.99
2018-07-19T20:02:43.925Z,34.59
2018-07-19T20:05:13.042Z,35.94
2018-07-19T20:07:42.197Z,36.45
2018-07-19T20:10:11.569Z,36.24
2018-07-19T20:12:40.697Z,36.81
2018-07-19T20:15:10.178Z,37.11
2018-07-19T20:17:39.497Z,37.13
2018-07-19T20:20:09.385Z,37.56
2018-07-19T20:22:38.585Z,37.48
2018-07-19T20:25:08.047Z,38.26
2018-07-19T20:27:37.364Z,37.63
2018-07-19T20:30:06.506Z,37.38
2018-07-19T20:32:35.629Z,38.32
2018-07-19T20:35:04.796Z,38.39
2018-07-19T20:37:33.870Z,38.86
2018-07-19T20:40:03.733Z,38.37
2018-07-19T20:42:32.909Z,38.87
2018-07-19T20:45:02.854Z,39.17
2018-07-19T20:47:31.982Z,39.18
2018-07-19T20:50:01.042Z,39.29
2018-07-19T20:52:30.141Z,39.23
2018-07-19T20:54:59.280Z,39.77
2018-07-19T20:57:28.381Z,39.07
2018-07-19T20:59:57.485Z,39.29
2018-07-19T21:02:26.722Z,39.23
2018-07-19T21:04:56.021Z,39.30
2018-07-19T21:07:25.342Z,39.48
2018-07-19T21:09:54.471Z,40.69
2018-07-19T21:12:23.558Z,39.86
2018-07-19T21:14:52.662Z,39.43
2018-07-19T21:17:21.814Z,40.69
2018-07-19T21:19:51.149Z,40.45
2018-07-19T21:22:20.246Z,40.79
2018-07-19T21:24:49.383Z,40.35
2018-07-19T21:27:18.482Z,40.86
2018-07-19T21:29:47.582Z,39.68
2018-07-19T21:32:16.987Z,40.80
2018-07-19T21:34:46.177Z,42.25
2018-07-19T21:37:15.443Z,43.35
2018-07-19T21:39:45.091Z,43.33
2018-07-19T21:42:14.271Z,44.93
2018-07-19T21:44:44.487Z,44.19
2018-07-19T21:47:13.854Z,45.61
2018-07-19T21:49:42.981Z,45.35
2018-07-19T21:52:12.099Z,45.13
2018-07-19T21:54:41.226Z,45.69
2018-07-19T21:57:10.355Z,45.98
2018-07-19T21:59:40.200Z,46.58
2018-07-19T22:02:11.453Z,46.63
2018-07-19T22:04:40.549Z,46.26
2018-07-19T22:07:10.277Z,46.05
2018-07-19T22:09:39.352Z,46.32
2018-07-19T22:12:08.562Z,46.41
2018-07-19T22:14:37.640Z,46.43
2018-07-19T22:17:06.882Z,46.75
2018-07-19T22:19:36.059Z,47.38
2018-07-19T22:22:05.362Z,46.70
2018-07-19T22:24:34.481Z,46.09
2018-07-19T22:27:03.591Z,46.12
2018-07-19T22:29:32.637Z,46.52
2018-07-19T22:32:01.757Z,46.84
2018-07-19T22:34:31.082Z,46.80
2018-07-19T22:37:00.260Z,47.53
2018-07-19T22:39:29.386Z,47.99
2018-07-19T22:41:58.520Z,48.36
2018-07-19T22:44:27.711Z,48.21
2018-07-19T22:46:56.945Z,48.08
2018-07-19T22:49:26.051Z,48.28
2018-07-19T22:51:56.330Z,49.09
2018-07-19T22:54:25.425Z,48.91
2018-07-19T22:56:54.526Z,48.27
2018-07-19T22:59:23.665Z,48.33
2018-07-19T23:01:52.710Z,49.03
2018-07-19T23:04:21.762Z,48.47
2018-07-19T23:06:50.804Z,48.99
2018-07-19T23:09:19.878Z,48.89
2018-07-19T23:11:48.901Z,48.88
2018-07-19T23:14:18.010Z,50.54
2018-07-19T23:16:47.078Z,50.56
2018-07-19T23:19:16.255Z,49.71
2018-07-19T23:21:45.376Z,50.05
2018-07-19T23:24:14.490Z,50.31
2018-07-19T23:26:43.569Z,51.14
2018-07-19T23:29:12.631Z,50.96
2018-07-19T23:31:41.690Z,51.05
2018-07-19T23:34:10.757Z,51.77
2018-07-19T23:36:57.112Z,51.76
2018-07-19T23:39:30.397Z,51.82
2018-07-19T23:42:04.981Z,51.89
2018-07-19T23:44:42.282Z,51.14
2018-07-19T23:47:15.570Z,51.69
2018-07-19T23:49:44.622Z,51.75
2018-07-19T23:52:13.678Z,51.61
2018-07-19T23:54:42.753Z,52.45
2018-07-19T23:57:11.805Z,52.70
2018-07-19T23:59:40.934Z,53.23
